sensor_id;sensor_type;location;lat;lon;timestamp;P1;durP1;ratioP1;P2;durP2;ratioP2
69417;SDS011;56610;48.872;2.400;2023-05-29T00:00:25;7.85;;;4.63;;
69417;SDS011;56610;48.872;2.400;2023-05-29T00:02:50;7.85;;;4.60;;
69417;SDS011;56610;48.872;2.400;2023-05-29T00:05:16;10.27;;;5.28;;
69417;SDS011;56610;48.872;2.400;2023-05-29T00:07:43;8.95;;;5.10;;
69417;SDS011;56610;48.872;2.400;2023-05-29T00:10:09;6.70;;;4.68;;
69417;SDS011;56610;48.872;2.400;2023-05-29T00:12:37;7.03;;;4.77;;
69417;SDS011;56610;48.872;2.400;2023-05-29T00:15:03;10.20;;;4.78;;
69417;SDS011;56610;48.872;2.400;2023-05-29T00:17:30;7.40;;;4.93;;
69417;SDS011;56610;48.872;2.400;2023-05-29T00:20:01;8.27;;;5.00;;
69417;SDS011;56610;48.872;2.400;2023-05-29T00:22:37;7.20;;;4.70;;
69417;SDS011;56610;48.872;2.400;2023-05-29T00:25:06;8.73;;;5.13;;
69417;SDS011;56610;48.872;2.400;2023-05-29T00:27:32;8.30;;;5.13;;
69417;SDS011;56610;48.872;2.400;2023-05-29T00:29:59;6.38;;;4.25;;
69417;SDS011;56610;48.872;2.400;2023-05-29T00:32:25;8.63;;;4.82;;
69417;SDS011;56610;48.872;2.400;2023-05-29T00:34:52;8.15;;;5.20;;
69417;SDS011;56610;48.872;2.400;2023-05-29T00:37:18;6.75;;;4.57;;
69417;SDS011;56610;48.872;2.400;2023-05-29T00:39:46;7.82;;;4.82;;
69417;SDS011;56610;48.872;2.400;2023-05-29T00:42:12;9.13;;;5.00;;
69417;SDS011;56610;48.872;2.400;2023-05-29T00:44:38;6.40;;;4.50;;
69417;SDS011;56610;48.872;2.400;2023-05-29T00:47:03;7.20;;;4.35;;
69417;SDS011;56610;48.872;2.400;2023-05-29T00:49:29;6.80;;;4.72;;
69417;SDS011;56610;48.872;2.400;2023-05-29T00:51:55;8.45;;;4.75;;
69417;SDS011;56610;48.872;2.400;2023-05-29T00:54:21;10.35;;;4.55;;
69417;SDS011;56610;48.872;2.400;2023-05-29T00:56:51;7.15;;;4.65;;
69417;SDS011;56610;48.872;2.400;2023-05-29T00:59:17;6.68;;;4.68;;
69417;SDS011;56610;48.872;2.400;2023-05-29T01:01:46;9.98;;;4.97;;
69417;SDS011;56610;48.872;2.400;2023-05-29T01:04:16;9.20;;;5.05;;
69417;SDS011;56610;48.872;2.400;2023-05-29T01:06:42;7.15;;;4.68;;
69417;SDS011;56610;48.872;2.400;2023-05-29T01:09:08;7.70;;;4.70;;
69417;SDS011;56610;48.872;2.400;2023-05-29T01:11:54;8.02;;;4.82;;
69417;SDS011;56610;48.872;2.400;2023-05-29T01:20:12;11.18;;;5.00;;
69417;SDS011;56610;48.872;2.400;2023-05-29T01:22:55;9.38;;;4.85;;
69417;SDS011;56610;48.872;2.400;2023-05-29T01:28:40;7.15;;;4.38;;
69417;SDS011;56610;48.872;2.400;2023-05-29T01:31:09;6.68;;;4.70;;
69417;SDS011;56610;48.872;2.400;2023-05-29T01:33:39;7.72;;;4.38;;
69417;SDS011;56610;48.872;2.400;2023-05-29T01:36:06;9.73;;;5.10;;
69417;SDS011;56610;48.872;2.400;2023-05-29T01:38:33;7.53;;;4.45;;
69417;SDS011;56610;48.872;2.400;2023-05-29T01:40:58;8.20;;;4.82;;
69417;SDS011;56610;48.872;2.400;2023-05-29T01:43:24;7.13;;;4.47;;
69417;SDS011;56610;48.872;2.400;2023-05-29T01:45:51;9.57;;;4.45;;
69417;SDS011;56610;48.872;2.400;2023-05-29T01:48:17;6.80;;;4.40;;
69417;SDS011;56610;48.872;2.400;2023-05-29T01:50:43;7.63;;;4.78;;
69417;SDS011;56610;48.872;2.400;2023-05-29T01:53:09;7.35;;;4.47;;
69417;SDS011;56610;48.872;2.400;2023-05-29T01:55:35;8.55;;;4.90;;
69417;SDS011;56610;48.872;2.400;2023-05-29T01:58:01;6.93;;;4.40;;
69417;SDS011;56610;48.872;2.400;2023-05-29T02:00:28;9.73;;;4.65;;
69417;SDS011;56610;48.872;2.400;2023-05-29T02:02:54;7.88;;;4.35;;
69417;SDS011;56610;48.872;2.400;2023-05-29T02:05:20;6.25;;;4.47;;
69417;SDS011;56610;48.872;2.400;2023-05-29T02:07:46;7.43;;;4.45;;
69417;SDS011;56610;48.872;2.400;2023-05-29T02:10:12;7.72;;;4.45;;
69417;SDS011;56610;48.872;2.400;2023-05-29T02:12:37;8.25;;;4.82;;
69417;SDS011;56610;48.872;2.400;2023-05-29T02:15:03;7.97;;;4.30;;
69417;SDS011;56610;48.872;2.400;2023-05-29T02:17:29;7.82;;;5.00;;
69417;SDS011;56610;48.872;2.400;2023-05-29T02:19:55;7.93;;;4.53;;
69417;SDS011;56610;48.872;2.400;2023-05-29T02:22:21;9.77;;;4.57;;
69417;SDS011;56610;48.872;2.400;2023-05-29T02:24:47;7.57;;;4.30;;
69417;SDS011;56610;48.872;2.400;2023-05-29T02:27:12;11.43;;;5.32;;
69417;SDS011;56610;48.872;2.400;2023-05-29T02:29:38;9.05;;;4.47;;
69417;SDS011;56610;48.872;2.400;2023-05-29T02:32:03;10.60;;;5.07;;
69417;SDS011;56610;48.872;2.400;2023-05-29T02:34:30;8.00;;;4.45;;
69417;SDS011;56610;48.872;2.400;2023-05-29T02:36:55;7.28;;;4.70;;
69417;SDS011;56610;48.872;2.400;2023-05-29T02:39:21;6.97;;;4.35;;
69417;SDS011;56610;48.872;2.400;2023-05-29T02:41:47;7.28;;;4.35;;
69417;SDS011;56610;48.872;2.400;2023-05-29T02:44:12;7.32;;;4.53;;
69417;SDS011;56610;48.872;2.400;2023-05-29T02:46:38;8.52;;;4.60;;
69417;SDS011;56610;48.872;2.400;2023-05-29T02:49:04;9.48;;;4.32;;
69417;SDS011;56610;48.872;2.400;2023-05-29T02:51:29;8.63;;;4.90;;
69417;SDS011;56610;48.872;2.400;2023-05-29T02:53:57;8.80;;;4.88;;
69417;SDS011;56610;48.872;2.400;2023-05-29T02:56:23;7.32;;;4.35;;
69417;SDS011;56610;48.872;2.400;2023-05-29T02:58:49;8.38;;;4.20;;
69417;SDS011;56610;48.872;2.400;2023-05-29T03:01:15;8.15;;;4.90;;
69417;SDS011;56610;48.872;2.400;2023-05-29T03:03:41;9.73;;;4.50;;
69417;SDS011;56610;48.872;2.400;2023-05-29T03:06:07;5.95;;;4.10;;
69417;SDS011;56610;48.872;2.400;2023-05-29T03:08:33;6.82;;;4.30;;
69417;SDS011;56610;48.872;2.400;2023-05-29T03:10:59;6.78;;;4.05;;
69417;SDS011;56610;48.872;2.400;2023-05-29T03:13:24;7.05;;;4.50;;
69417;SDS011;56610;48.872;2.400;2023-05-29T03:15:50;9.43;;;4.93;;
69417;SDS011;56610;48.872;2.400;2023-05-29T03:18:16;8.95;;;4.72;;
69417;SDS011;56610;48.872;2.400;2023-05-29T03:20:41;10.35;;;5.22;;
69417;SDS011;56610;48.872;2.400;2023-05-29T03:23:07;8.88;;;4.85;;
69417;SDS011;56610;48.872;2.400;2023-05-29T03:25:32;10.57;;;5.03;;
69417;SDS011;56610;48.872;2.400;2023-05-29T03:27:58;6.78;;;4.35;;
69417;SDS011;56610;48.872;2.400;2023-05-29T03:30:23;8.02;;;4.70;;
69417;SDS011;56610;48.872;2.400;2023-05-29T03:32:49;7.55;;;4.32;;
69417;SDS011;56610;48.872;2.400;2023-05-29T03:35:15;9.57;;;4.25;;
69417;SDS011;56610;48.872;2.400;2023-05-29T03:37:40;7.30;;;3.97;;
69417;SDS011;56610;48.872;2.400;2023-05-29T03:40:06;6.60;;;4.20;;
69417;SDS011;56610;48.872;2.400;2023-05-29T03:42:33;6.60;;;4.55;;
69417;SDS011;56610;48.872;2.400;2023-05-29T03:44:58;8.55;;;4.28;;
69417;SDS011;56610;48.872;2.400;2023-05-29T03:47:24;7.75;;;5.28;;
69417;SDS011;56610;48.872;2.400;2023-05-29T03:49:50;7.63;;;4.90;;
69417;SDS011;56610;48.872;2.400;2023-05-29T03:52:16;8.82;;;5.05;;
69417;SDS011;56610;48.872;2.400;2023-05-29T03:54:41;6.35;;;4.20;;
69417;SDS011;56610;48.872;2.400;2023-05-29T03:57:07;7.30;;;4.38;;
69417;SDS011;56610;48.872;2.400;2023-05-29T03:59:33;10.10;;;4.75;;
69417;SDS011;56610;48.872;2.400;2023-05-29T04:01:59;7.55;;;4.43;;
69417;SDS011;56610;48.872;2.400;2023-05-29T04:04:25;8.43;;;5.00;;
69417;SDS011;56610;48.872;2.400;2023-05-29T04:06:51;8.93;;;4.93;;
69417;SDS011;56610;48.872;2.400;2023-05-29T04:09:17;7.63;;;4.63;;
69417;SDS011;56610;48.872;2.400;2023-05-29T04:11:43;7.10;;;4.75;;
69417;SDS011;56610;48.872;2.400;2023-05-29T04:14:09;8.35;;;4.75;;
69417;SDS011;56610;48.872;2.400;2023-05-29T04:16:35;9.02;;;4.68;;
69417;SDS011;56610;48.872;2.400;2023-05-29T04:19:00;8.88;;;4.85;;
69417;SDS011;56610;48.872;2.400;2023-05-29T04:21:26;9.57;;;5.35;;
69417;SDS011;56610;48.872;2.400;2023-05-29T04:23:52;10.27;;;4.95;;
69417;SDS011;56610;48.872;2.400;2023-05-29T04:26:17;8.98;;;5.00;;
69417;SDS011;56610;48.872;2.400;2023-05-29T04:28:45;8.80;;;5.25;;
69417;SDS011;56610;48.872;2.400;2023-05-29T04:31:11;9.55;;;4.97;;
69417;SDS011;56610;48.872;2.400;2023-05-29T04:33:39;8.57;;;4.95;;
69417;SDS011;56610;48.872;2.400;2023-05-29T04:36:05;8.57;;;4.97;;
69417;SDS011;56610;48.872;2.400;2023-05-29T04:38:30;8.32;;;5.22;;
69417;SDS011;56610;48.872;2.400;2023-05-29T04:40:56;11.93;;;5.68;;
69417;SDS011;56610;48.872;2.400;2023-05-29T04:43:24;8.93;;;5.18;;
69417;SDS011;56610;48.872;2.400;2023-05-29T04:45:53;9.68;;;5.43;;
69417;SDS011;56610;48.872;2.400;2023-05-29T04:48:18;8.82;;;5.03;;
69417;SDS011;56610;48.872;2.400;2023-05-29T04:50:44;7.45;;;5.50;;
69417;SDS011;56610;48.872;2.400;2023-05-29T04:53:10;8.18;;;5.30;;
69417;SDS011;56610;48.872;2.400;2023-05-29T04:55:36;9.82;;;5.57;;
69417;SDS011;56610;48.872;2.400;2023-05-29T04:58:01;8.30;;;5.63;;
69417;SDS011;56610;48.872;2.400;2023-05-29T05:00:27;7.70;;;5.47;;
69417;SDS011;56610;48.872;2.400;2023-05-29T05:02:53;9.15;;;6.10;;
69417;SDS011;56610;48.872;2.400;2023-05-29T05:05:19;8.13;;;5.55;;
69417;SDS011;56610;48.872;2.400;2023-05-29T05:07:45;9.80;;;5.68;;
69417;SDS011;56610;48.872;2.400;2023-05-29T05:10:10;7.07;;;5.50;;
69417;SDS011;56610;48.872;2.400;2023-05-29T05:12:36;8.70;;;5.65;;
69417;SDS011;56610;48.872;2.400;2023-05-29T05:15:04;6.65;;;4.90;;
69417;SDS011;56610;48.872;2.400;2023-05-29T05:17:30;9.70;;;6.18;;
69417;SDS011;56610;48.872;2.400;2023-05-29T05:19:55;9.23;;;5.97;;
69417;SDS011;56610;48.872;2.400;2023-05-29T05:22:21;7.75;;;5.40;;
69417;SDS011;56610;48.872;2.400;2023-05-29T05:24:46;10.38;;;6.47;;
69417;SDS011;56610;48.872;2.400;2023-05-29T05:27:12;12.10;;;6.25;;
69417;SDS011;56610;48.872;2.400;2023-05-29T05:29:38;9.93;;;6.55;;
69417;SDS011;56610;48.872;2.400;2023-05-29T05:32:04;10.45;;;6.35;;
69417;SDS011;56610;48.872;2.400;2023-05-29T05:34:30;10.10;;;6.32;;
69417;SDS011;56610;48.872;2.400;2023-05-29T05:36:56;8.40;;;5.90;;
69417;SDS011;56610;48.872;2.400;2023-05-29T05:39:21;12.30;;;6.43;;
69417;SDS011;56610;48.872;2.400;2023-05-29T05:41:47;9.93;;;6.30;;
69417;SDS011;56610;48.872;2.400;2023-05-29T05:44:13;8.30;;;5.97;;
69417;SDS011;56610;48.872;2.400;2023-05-29T05:46:38;11.38;;;6.38;;
69417;SDS011;56610;48.872;2.400;2023-05-29T05:49:04;10.13;;;6.53;;
69417;SDS011;56610;48.872;2.400;2023-05-29T05:51:30;8.13;;;6.25;;
69417;SDS011;56610;48.872;2.400;2023-05-29T05:53:56;9.35;;;6.32;;
69417;SDS011;56610;48.872;2.400;2023-05-29T05:56:21;8.93;;;6.30;;
69417;SDS011;56610;48.872;2.400;2023-05-29T05:58:47;9.38;;;6.43;;
69417;SDS011;56610;48.872;2.400;2023-05-29T06:01:14;9.35;;;6.55;;
69417;SDS011;56610;48.872;2.400;2023-05-29T06:03:40;9.75;;;6.13;;
69417;SDS011;56610;48.872;2.400;2023-05-29T06:06:05;10.23;;;5.95;;
69417;SDS011;56610;48.872;2.400;2023-05-29T06:08:32;8.93;;;6.45;;
69417;SDS011;56610;48.872;2.400;2023-05-29T06:10:58;8.80;;;6.18;;
69417;SDS011;56610;48.872;2.400;2023-05-29T06:13:23;8.65;;;5.82;;
69417;SDS011;56610;48.872;2.400;2023-05-29T06:15:49;9.43;;;6.20;;
69417;SDS011;56610;48.872;2.400;2023-05-29T06:18:15;8.43;;;5.93;;
69417;SDS011;56610;48.872;2.400;2023-05-29T06:20:41;9.52;;;6.00;;
69417;SDS011;56610;48.872;2.400;2023-05-29T06:23:06;9.18;;;6.30;;
69417;SDS011;56610;48.872;2.400;2023-05-29T06:25:32;7.20;;;5.97;;
69417;SDS011;56610;48.872;2.400;2023-05-29T06:28:00;10.00;;;5.68;;
69417;SDS011;56610;48.872;2.400;2023-05-29T06:30:26;7.60;;;6.25;;
69417;SDS011;56610;48.872;2.400;2023-05-29T06:32:52;8.80;;;5.90;;
69417;SDS011;56610;48.872;2.400;2023-05-29T06:35:17;9.15;;;6.07;;
69417;SDS011;56610;48.872;2.400;2023-05-29T06:37:44;8.55;;;6.20;;
69417;SDS011;56610;48.872;2.400;2023-05-29T06:40:11;9.10;;;5.93;;
69417;SDS011;56610;48.872;2.400;2023-05-29T06:42:37;8.15;;;6.00;;
69417;SDS011;56610;48.872;2.400;2023-05-29T06:45:03;9.07;;;5.75;;
69417;SDS011;56610;48.872;2.400;2023-05-29T06:47:29;8.57;;;5.95;;
69417;SDS011;56610;48.872;2.400;2023-05-29T06:49:55;8.48;;;5.70;;
69417;SDS011;56610;48.872;2.400;2023-05-29T06:52:20;9.48;;;5.90;;
69417;SDS011;56610;48.872;2.400;2023-05-29T06:54:46;9.38;;;5.50;;
69417;SDS011;56610;48.872;2.400;2023-05-29T06:57:11;8.60;;;5.35;;
69417;SDS011;56610;48.872;2.400;2023-05-29T06:59:37;6.18;;;5.35;;
69417;SDS011;56610;48.872;2.400;2023-05-29T07:02:03;7.63;;;6.03;;
69417;SDS011;56610;48.872;2.400;2023-05-29T07:04:29;8.95;;;6.35;;
69417;SDS011;56610;48.872;2.400;2023-05-29T07:06:54;8.93;;;6.10;;
69417;SDS011;56610;48.872;2.400;2023-05-29T07:09:20;10.45;;;6.10;;
69417;SDS011;56610;48.872;2.400;2023-05-29T07:11:46;8.02;;;6.20;;
69417;SDS011;56610;48.872;2.400;2023-05-29T07:14:11;8.77;;;5.60;;
69417;SDS011;56610;48.872;2.400;2023-05-29T07:16:37;8.07;;;5.70;;
69417;SDS011;56610;48.872;2.400;2023-05-29T07:19:03;12.57;;;6.40;;
69417;SDS011;56610;48.872;2.400;2023-05-29T07:21:28;6.60;;;5.07;;
69417;SDS011;56610;48.872;2.400;2023-05-29T07:23:54;9.90;;;5.50;;
69417;SDS011;56610;48.872;2.400;2023-05-29T07:26:19;7.75;;;5.68;;
69417;SDS011;56610;48.872;2.400;2023-05-29T07:31:13;8.93;;;5.93;;
69417;SDS011;56610;48.872;2.400;2023-05-29T07:33:39;8.18;;;5.63;;
69417;SDS011;56610;48.872;2.400;2023-05-29T07:36:06;7.65;;;5.80;;
69417;SDS011;56610;48.872;2.400;2023-05-29T07:38:32;7.82;;;5.82;;
69417;SDS011;56610;48.872;2.400;2023-05-29T07:40:58;8.38;;;5.65;;
69417;SDS011;56610;48.872;2.400;2023-05-29T07:43:24;6.95;;;5.63;;
69417;SDS011;56610;48.872;2.400;2023-05-29T07:45:49;7.28;;;5.68;;
69417;SDS011;56610;48.872;2.400;2023-05-29T07:48:15;8.13;;;5.18;;
69417;SDS011;56610;48.872;2.400;2023-05-29T07:50:40;6.95;;;5.30;;
69417;SDS011;56610;48.872;2.400;2023-05-29T07:53:06;7.15;;;5.28;;
69417;SDS011;56610;48.872;2.400;2023-05-29T07:55:32;5.65;;;5.05;;
69417;SDS011;56610;48.872;2.400;2023-05-29T07:57:59;7.17;;;5.00;;
69417;SDS011;56610;48.872;2.400;2023-05-29T08:00:24;7.57;;;5.50;;
69417;SDS011;56610;48.872;2.400;2023-05-29T08:02:50;7.07;;;5.75;;
69417;SDS011;56610;48.872;2.400;2023-05-29T08:05:17;6.03;;;5.00;;
69417;SDS011;56610;48.872;2.400;2023-05-29T08:07:42;8.80;;;5.20;;
69417;SDS011;56610;48.872;2.400;2023-05-29T08:10:08;5.85;;;4.97;;
69417;SDS011;56610;48.872;2.400;2023-05-29T08:12:34;8.85;;;5.72;;
69417;SDS011;56610;48.872;2.400;2023-05-29T08:15:00;8.57;;;5.72;;
69417;SDS011;56610;48.872;2.400;2023-05-29T08:17:27;7.18;;;5.45;;
69417;SDS011;56610;48.872;2.400;2023-05-29T08:19:53;10.18;;;5.38;;
69417;SDS011;56610;48.872;2.400;2023-05-29T08:22:18;8.75;;;5.63;;
69417;SDS011;56610;48.872;2.400;2023-05-29T08:24:44;8.23;;;5.55;;
69417;SDS011;56610;48.872;2.400;2023-05-29T08:27:09;7.63;;;5.60;;
69417;SDS011;56610;48.872;2.400;2023-05-29T08:29:35;6.68;;;5.07;;
69417;SDS011;56610;48.872;2.400;2023-05-29T08:32:01;6.38;;;5.07;;
69417;SDS011;56610;48.872;2.400;2023-05-29T08:34:27;6.85;;;5.38;;
69417;SDS011;56610;48.872;2.400;2023-05-29T08:36:53;8.70;;;5.93;;
69417;SDS011;56610;48.872;2.400;2023-05-29T08:39:20;6.20;;;5.28;;
69417;SDS011;56610;48.872;2.400;2023-05-29T08:44:26;6.78;;;5.13;;
69417;SDS011;56610;48.872;2.400;2023-05-29T08:46:56;7.82;;;5.35;;
69417;SDS011;56610;48.872;2.400;2023-05-29T08:49:25;8.50;;;5.72;;
69417;SDS011;56610;48.872;2.400;2023-05-29T08:51:57;6.30;;;5.40;;
69417;SDS011;56610;48.872;2.400;2023-05-29T08:54:34;11.63;;;6.10;;
69417;SDS011;56610;48.872;2.400;2023-05-29T08:57:00;8.88;;;5.47;;
69417;SDS011;56610;48.872;2.400;2023-05-29T08:59:26;6.05;;;4.82;;
69417;SDS011;56610;48.872;2.400;2023-05-29T09:01:54;6.95;;;5.65;;
69417;SDS011;56610;48.872;2.400;2023-05-29T09:04:20;8.55;;;5.68;;
69417;SDS011;56610;48.872;2.400;2023-05-29T09:06:47;6.57;;;5.68;;
69417;SDS011;56610;48.872;2.400;2023-05-29T09:09:14;7.60;;;5.72;;
69417;SDS011;56610;48.872;2.400;2023-05-29T09:11:40;7.00;;;5.75;;
69417;SDS011;56610;48.872;2.400;2023-05-29T09:14:05;8.65;;;5.95;;
69417;SDS011;56610;48.872;2.400;2023-05-29T09:16:56;6.55;;;5.50;;
69417;SDS011;56610;48.872;2.400;2023-05-29T09:19:21;7.57;;;5.97;;
69417;SDS011;56610;48.872;2.400;2023-05-29T09:21:47;7.90;;;6.03;;
69417;SDS011;56610;48.872;2.400;2023-05-29T09:24:13;7.07;;;5.78;;
69417;SDS011;56610;48.872;2.400;2023-05-29T09:26:39;7.25;;;5.97;;
69417;SDS011;56610;48.872;2.400;2023-05-29T09:29:15;7.63;;;6.13;;
69417;SDS011;56610;48.872;2.400;2023-05-29T09:31:47;7.45;;;5.85;;
69417;SDS011;56610;48.872;2.400;2023-05-29T09:34:13;7.50;;;5.50;;
69417;SDS011;56610;48.872;2.400;2023-05-29T09:36:39;7.90;;;6.25;;
69417;SDS011;56610;48.872;2.400;2023-05-29T09:39:05;8.70;;;5.90;;
69417;SDS011;56610;48.872;2.400;2023-05-29T09:41:34;7.38;;;5.97;;
69417;SDS011;56610;48.872;2.400;2023-05-29T09:44:06;6.90;;;5.70;;
69417;SDS011;56610;48.872;2.400;2023-05-29T09:46:35;6.95;;;5.95;;
69417;SDS011;56610;48.872;2.400;2023-05-29T09:49:01;7.72;;;5.80;;
69417;SDS011;56610;48.872;2.400;2023-05-29T09:51:28;8.98;;;6.10;;
69417;SDS011;56610;48.872;2.400;2023-05-29T09:53:54;7.35;;;6.45;;
69417;SDS011;56610;48.872;2.400;2023-05-29T09:56:22;6.95;;;5.72;;
69417;SDS011;56610;48.872;2.400;2023-05-29T09:58:49;6.88;;;6.15;;
69417;SDS011;56610;48.872;2.400;2023-05-29T10:01:18;7.00;;;6.25;;
69417;SDS011;56610;48.872;2.400;2023-05-29T10:03:44;7.43;;;6.55;;
69417;SDS011;56610;48.872;2.400;2023-05-29T10:06:10;6.97;;;6.28;;
69417;SDS011;56610;48.872;2.400;2023-05-29T10:08:42;7.88;;;6.75;;
69417;SDS011;56610;48.872;2.400;2023-05-29T10:11:14;8.50;;;6.55;;
69417;SDS011;56610;48.872;2.400;2023-05-29T10:13:49;6.30;;;5.63;;
69417;SDS011;56610;48.872;2.400;2023-05-29T10:16:17;7.32;;;6.55;;
69417;SDS011;56610;48.872;2.400;2023-05-29T10:18:55;7.53;;;6.65;;
69417;SDS011;56610;48.872;2.400;2023-05-29T10:21:22;8.20;;;6.90;;
69417;SDS011;56610;48.872;2.400;2023-05-29T10:23:51;7.75;;;6.95;;
69417;SDS011;56610;48.872;2.400;2023-05-29T10:26:24;8.10;;;6.82;;
69417;SDS011;56610;48.872;2.400;2023-05-29T10:37:33;8.10;;;7.30;;
69417;SDS011;56610;48.872;2.400;2023-05-29T10:40:05;8.57;;;7.68;;
69417;SDS011;56610;48.872;2.400;2023-05-29T10:42:40;9.68;;;7.93;;
69417;SDS011;56610;48.872;2.400;2023-05-29T10:45:07;8.30;;;7.30;;
69417;SDS011;56610;48.872;2.400;2023-05-29T10:47:33;11.05;;;8.25;;
69417;SDS011;56610;48.872;2.400;2023-05-29T10:50:01;7.60;;;6.90;;
69417;SDS011;56610;48.872;2.400;2023-05-29T10:52:30;8.32;;;7.50;;
69417;SDS011;56610;48.872;2.400;2023-05-29T10:54:59;8.20;;;7.40;;
69417;SDS011;56610;48.872;2.400;2023-05-29T10:57:28;8.65;;;7.75;;
69417;SDS011;56610;48.872;2.400;2023-05-29T11:00:05;10.13;;;9.13;;
69417;SDS011;56610;48.872;2.400;2023-05-29T11:02:32;9.50;;;7.97;;
69417;SDS011;56610;48.872;2.400;2023-05-29T11:05:20;10.43;;;8.35;;
69417;SDS011;56610;48.872;2.400;2023-05-29T11:07:50;9.38;;;8.43;;
69417;SDS011;56610;48.872;2.400;2023-05-29T11:10:18;8.27;;;7.47;;
69417;SDS011;56610;48.872;2.400;2023-05-29T11:13:34;7.75;;;6.10;;
69417;SDS011;56610;48.872;2.400;2023-05-29T11:18:44;6.47;;;5.75;;
69417;SDS011;56610;48.872;2.400;2023-05-29T11:23:52;5.28;;;4.60;;
69417;SDS011;56610;48.872;2.400;2023-05-29T11:26:19;5.93;;;5.20;;
69417;SDS011;56610;48.872;2.400;2023-05-29T11:28:47;6.85;;;5.43;;
69417;SDS011;56610;48.872;2.400;2023-05-29T11:31:13;6.25;;;5.40;;
69417;SDS011;56610;48.872;2.400;2023-05-29T11:33:41;6.20;;;4.85;;
69417;SDS011;56610;48.872;2.400;2023-05-29T11:36:19;6.18;;;4.68;;
69417;SDS011;56610;48.872;2.400;2023-05-29T11:38:46;4.97;;;4.47;;
69417;SDS011;56610;48.872;2.400;2023-05-29T11:41:12;5.57;;;4.80;;
69417;SDS011;56610;48.872;2.400;2023-05-29T11:43:38;9.45;;;5.47;;
69417;SDS011;56610;48.872;2.400;2023-05-29T11:46:19;5.60;;;4.45;;
69417;SDS011;56610;48.872;2.400;2023-05-29T11:48:46;5.82;;;4.80;;
69417;SDS011;56610;48.872;2.400;2023-05-29T11:51:12;6.43;;;4.97;;
69417;SDS011;56610;48.872;2.400;2023-05-29T11:53:40;6.15;;;4.50;;
69417;SDS011;56610;48.872;2.400;2023-05-29T11:56:07;6.95;;;4.80;;
69417;SDS011;56610;48.872;2.400;2023-05-29T11:58:35;6.70;;;4.07;;
69417;SDS011;56610;48.872;2.400;2023-05-29T12:03:28;5.63;;;4.95;;
69417;SDS011;56610;48.872;2.400;2023-05-29T12:05:54;5.53;;;4.50;;
69417;SDS011;56610;48.872;2.400;2023-05-29T12:08:23;6.47;;;4.43;;
69417;SDS011;56610;48.872;2.400;2023-05-29T12:10:50;5.05;;;3.80;;
69417;SDS011;56610;48.872;2.400;2023-05-29T12:13:21;5.10;;;3.70;;
69417;SDS011;56610;48.872;2.400;2023-05-29T12:15:47;4.57;;;3.28;;
69417;SDS011;56610;48.872;2.400;2023-05-29T12:18:14;6.95;;;3.92;;
69417;SDS011;56610;48.872;2.400;2023-05-29T12:20:40;5.95;;;3.70;;
69417;SDS011;56610;48.872;2.400;2023-05-29T12:23:06;6.68;;;3.25;;
69417;SDS011;56610;48.872;2.400;2023-05-29T12:25:33;6.78;;;3.72;;
69417;SDS011;56610;48.872;2.400;2023-05-29T12:28:01;3.72;;;2.90;;
69417;SDS011;56610;48.872;2.400;2023-05-29T12:30:27;6.07;;;3.38;;
69417;SDS011;56610;48.872;2.400;2023-05-29T12:32:53;5.25;;;3.55;;
69417;SDS011;56610;48.872;2.400;2023-05-29T12:35:26;5.43;;;3.17;;
69417;SDS011;56610;48.872;2.400;2023-05-29T12:37:56;3.90;;;3.13;;
69417;SDS011;56610;48.872;2.400;2023-05-29T12:40:23;5.75;;;3.38;;
69417;SDS011;56610;48.872;2.400;2023-05-29T12:42:54;3.47;;;2.90;;
69417;SDS011;56610;48.872;2.400;2023-05-29T12:45:28;5.45;;;2.92;;
69417;SDS011;56610;48.872;2.400;2023-05-29T12:48:02;6.20;;;3.22;;
69417;SDS011;56610;48.872;2.400;2023-05-29T12:50:32;4.32;;;2.95;;
69417;SDS011;56610;48.872;2.400;2023-05-29T12:55:29;5.88;;;3.08;;
69417;SDS011;56610;48.872;2.400;2023-05-29T12:58:02;6.00;;;2.85;;
69417;SDS011;56610;48.872;2.400;2023-05-29T13:00:28;4.50;;;3.08;;
69417;SDS011;56610;48.872;2.400;2023-05-29T13:02:55;5.43;;;3.00;;
69417;SDS011;56610;48.872;2.400;2023-05-29T13:05:20;4.85;;;2.92;;
69417;SDS011;56610;48.872;2.400;2023-05-29T13:07:48;4.72;;;2.60;;
69417;SDS011;56610;48.872;2.400;2023-05-29T13:12:41;4.32;;;2.80;;
69417;SDS011;56610;48.872;2.400;2023-05-29T13:15:07;3.83;;;2.67;;
69417;SDS011;56610;48.872;2.400;2023-05-29T13:17:35;4.32;;;2.50;;
69417;SDS011;56610;48.872;2.400;2023-05-29T13:20:00;5.13;;;2.70;;
69417;SDS011;56610;48.872;2.400;2023-05-29T13:22:26;4.15;;;2.65;;
69417;SDS011;56610;48.872;2.400;2023-05-29T13:24:56;4.88;;;2.30;;
69417;SDS011;56610;48.872;2.400;2023-05-29T13:27:25;3.10;;;2.45;;
69417;SDS011;56610;48.872;2.400;2023-05-29T13:29:51;4.90;;;3.00;;
69417;SDS011;56610;48.872;2.400;2023-05-29T13:32:17;4.75;;;2.83;;
69417;SDS011;56610;48.872;2.400;2023-05-29T13:34:42;4.93;;;2.80;;
69417;SDS011;56610;48.872;2.400;2023-05-29T13:37:08;5.25;;;2.78;;
69417;SDS011;56610;48.872;2.400;2023-05-29T13:39:33;5.60;;;2.70;;
69417;SDS011;56610;48.872;2.400;2023-05-29T13:41:59;5.03;;;2.40;;
69417;SDS011;56610;48.872;2.400;2023-05-29T13:44:25;4.72;;;2.80;;
69417;SDS011;56610;48.872;2.400;2023-05-29T13:46:51;4.40;;;2.42;;
69417;SDS011;56610;48.872;2.400;2023-05-29T13:49:16;6.40;;;2.75;;
69417;SDS011;56610;48.872;2.400;2023-05-29T13:51:42;5.13;;;2.47;;
69417;SDS011;56610;48.872;2.400;2023-05-29T13:54:10;4.03;;;2.28;;
69417;SDS011;56610;48.872;2.400;2023-05-29T13:56:35;4.68;;;2.60;;
69417;SDS011;56610;48.872;2.400;2023-05-29T13:59:01;6.63;;;2.80;;
69417;SDS011;56610;48.872;2.400;2023-05-29T14:01:30;4.03;;;2.72;;
69417;SDS011;56610;48.872;2.400;2023-05-29T14:03:56;6.07;;;2.67;;
69417;SDS011;56610;48.872;2.400;2023-05-29T14:06:21;5.28;;;2.75;;
69417;SDS011;56610;48.872;2.400;2023-05-29T14:08:47;3.33;;;2.35;;
69417;SDS011;56610;48.872;2.400;2023-05-29T14:11:12;6.93;;;2.70;;
69417;SDS011;56610;48.872;2.400;2023-05-29T14:13:38;5.57;;;2.65;;
69417;SDS011;56610;48.872;2.400;2023-05-29T14:16:03;3.75;;;2.10;;
69417;SDS011;56610;48.872;2.400;2023-05-29T14:18:29;5.55;;;2.85;;
69417;SDS011;56610;48.872;2.400;2023-05-29T14:20:55;4.88;;;2.58;;
69417;SDS011;56610;48.872;2.400;2023-05-29T14:23:20;3.85;;;2.70;;
69417;SDS011;56610;48.872;2.400;2023-05-29T14:25:46;5.32;;;3.08;;
69417;SDS011;56610;48.872;2.400;2023-05-29T14:28:13;4.45;;;2.53;;
69417;SDS011;56610;48.872;2.400;2023-05-29T14:30:38;6.13;;;2.88;;
69417;SDS011;56610;48.872;2.400;2023-05-29T14:33:04;5.07;;;2.70;;
69417;SDS011;56610;48.872;2.400;2023-05-29T14:35:30;4.70;;;2.45;;
69417;SDS011;56610;48.872;2.400;2023-05-29T14:37:56;4.40;;;2.60;;
69417;SDS011;56610;48.872;2.400;2023-05-29T14:40:22;6.18;;;3.00;;
69417;SDS011;56610;48.872;2.400;2023-05-29T14:42:47;4.65;;;2.45;;
69417;SDS011;56610;48.872;2.400;2023-05-29T14:45:13;4.30;;;2.65;;
69417;SDS011;56610;48.872;2.400;2023-05-29T14:47:39;5.50;;;2.83;;
69417;SDS011;56610;48.872;2.400;2023-05-29T14:50:06;4.47;;;2.80;;
69417;SDS011;56610;48.872;2.400;2023-05-29T14:52:32;3.67;;;2.30;;
69417;SDS011;56610;48.872;2.400;2023-05-29T14:54:59;3.90;;;2.42;;
69417;SDS011;56610;48.872;2.400;2023-05-29T14:57:32;5.80;;;2.60;;
69417;SDS011;56610;48.872;2.400;2023-05-29T15:02:25;4.75;;;2.47;;
69417;SDS011;56610;48.872;2.400;2023-05-29T15:04:51;4.50;;;2.60;;
69417;SDS011;56610;48.872;2.400;2023-05-29T15:07:16;5.10;;;2.47;;
69417;SDS011;56610;48.872;2.400;2023-05-29T15:09:42;4.45;;;2.70;;
69417;SDS011;56610;48.872;2.400;2023-05-29T15:12:08;3.70;;;2.45;;
69417;SDS011;56610;48.872;2.400;2023-05-29T15:14:34;3.85;;;2.33;;
69417;SDS011;56610;48.872;2.400;2023-05-29T15:17:03;5.30;;;2.40;;
69417;SDS011;56610;48.872;2.400;2023-05-29T15:19:29;4.03;;;2.65;;
69417;SDS011;56610;48.872;2.400;2023-05-29T15:21:55;6.35;;;2.97;;